West Carrollton, Ohio
Current Conditions -  °F | °C
As of 1:53 AM on Sunday 26 Oct 2014 (Local Time) from KMGY Reporting Station
Clear Clear  
Wind Chill: 56°   Ceiling: Unl
Heat Index: 56°   Visibility: 10mi
Dew Point: 43°   Wind: 3mph
Humidity: 62%   Direction: 280°W
Pressure: 29.93"   Gusts: NA
Location:  39.664°N, 84.2415°W
Report Text: KMGY 260553Z AUTO 28003KT 10SM CLR 13/06 A2993 RMK AO2 SLP132 T01330061 10200 20133 51007
Loading
Personal Weather Stations






























Interactive Weather Map
Tropical Storm Tracking
New forecast layout! Learn more

10-Day Weather Forecast

Advertisements
Track Severe Weather on mobile